sensor_id;sensor_type;location;lat;lon;timestamp;P1;durP1;ratioP1;P2;durP2;ratioP2
65597;SDS011;52267;51.984;20.956;2023-02-01T00:00:59;8.00;;;4.60;;
65597;SDS011;52267;51.984;20.956;2023-02-01T00:03:27;10.60;;;5.40;;
65597;SDS011;52267;51.984;20.956;2023-02-01T00:05:58;8.30;;;4.80;;
65597;SDS011;52267;51.984;20.956;2023-02-01T00:11:01;7.00;;;3.50;;
65597;SDS011;52267;51.984;20.956;2023-02-01T00:13:34;7.80;;;4.30;;
65597;SDS011;52267;51.984;20.956;2023-02-01T00:16:13;8.20;;;4.40;;
65597;SDS011;52267;51.984;20.956;2023-02-01T00:18:45;7.90;;;4.40;;
65597;SDS011;52267;51.984;20.956;2023-02-01T00:21:15;9.70;;;4.80;;
65597;SDS011;52267;51.984;20.956;2023-02-01T00:23:45;6.30;;;4.20;;
65597;SDS011;52267;51.984;20.956;2023-02-01T00:26:20;8.00;;;4.30;;
65597;SDS011;52267;51.984;20.956;2023-02-01T00:28:52;9.00;;;5.40;;
65597;SDS011;52267;51.984;20.956;2023-02-01T00:31:19;10.10;;;6.10;;
65597;SDS011;52267;51.984;20.956;2023-02-01T00:33:47;9.20;;;5.80;;
65597;SDS011;52267;51.984;20.956;2023-02-01T00:36:15;6.60;;;4.20;;
65597;SDS011;52267;51.984;20.956;2023-02-01T00:38:44;10.40;;;6.20;;
65597;SDS011;52267;51.984;20.956;2023-02-01T00:41:16;8.40;;;5.60;;
65597;SDS011;52267;51.984;20.956;2023-02-01T00:43:45;10.90;;;5.80;;
65597;SDS011;52267;51.984;20.956;2023-02-01T00:46:13;13.00;;;6.80;;
65597;SDS011;52267;51.984;20.956;2023-02-01T00:48:42;6.70;;;3.90;;
65597;SDS011;52267;51.984;20.956;2023-02-01T00:51:13;9.10;;;5.70;;
65597;SDS011;52267;51.984;20.956;2023-02-01T00:53:42;12.50;;;7.10;;
65597;SDS011;52267;51.984;20.956;2023-02-01T00:56:10;11.50;;;6.80;;
65597;SDS011;52267;51.984;20.956;2023-02-01T00:58:37;10.70;;;6.00;;
65597;SDS011;52267;51.984;20.956;2023-02-01T01:01:08;8.70;;;5.50;;
65597;SDS011;52267;51.984;20.956;2023-02-01T01:06:12;8.20;;;3.80;;
65597;SDS011;52267;51.984;20.956;2023-02-01T01:08:42;4.90;;;3.10;;
65597;SDS011;52267;51.984;20.956;2023-02-01T01:11:13;4.90;;;2.50;;
65597;SDS011;52267;51.984;20.956;2023-02-01T01:13:42;4.60;;;2.60;;
65597;SDS011;52267;51.984;20.956;2023-02-01T01:16:13;7.00;;;3.10;;
65597;SDS011;52267;51.984;20.956;2023-02-01T01:18:40;7.80;;;4.00;;
65597;SDS011;52267;51.984;20.956;2023-02-01T01:21:09;8.40;;;3.60;;
65597;SDS011;52267;51.984;20.956;2023-02-01T01:23:38;5.40;;;3.40;;
65597;SDS011;52267;51.984;20.956;2023-02-01T01:26:13;6.40;;;3.00;;
65597;SDS011;52267;51.984;20.956;2023-02-01T01:28:42;5.70;;;2.50;;
65597;SDS011;52267;51.984;20.956;2023-02-01T01:31:10;5.00;;;2.30;;
65597;SDS011;52267;51.984;20.956;2023-02-01T01:33:38;7.20;;;2.80;;
65597;SDS011;52267;51.984;20.956;2023-02-01T01:36:10;5.80;;;2.40;;
65597;SDS011;52267;51.984;20.956;2023-02-01T01:38:39;6.00;;;2.40;;
65597;SDS011;52267;51.984;20.956;2023-02-01T01:41:08;6.50;;;2.80;;
65597;SDS011;52267;51.984;20.956;2023-02-01T01:43:47;6.00;;;1.90;;
65597;SDS011;52267;51.984;20.956;2023-02-01T01:46:38;6.00;;;2.70;;
65597;SDS011;52267;51.984;20.956;2023-02-01T01:49:11;6.70;;;2.40;;
65597;SDS011;52267;51.984;20.956;2023-02-01T01:51:49;7.60;;;2.70;;
65597;SDS011;52267;51.984;20.956;2023-02-01T01:54:19;5.00;;;2.20;;
65597;SDS011;52267;51.984;20.956;2023-02-01T01:56:52;5.30;;;1.90;;
65597;SDS011;52267;51.984;20.956;2023-02-01T01:59:23;5.20;;;1.90;;
65597;SDS011;52267;51.984;20.956;2023-02-01T02:01:51;7.60;;;2.40;;
65597;SDS011;52267;51.984;20.956;2023-02-01T02:04:19;5.30;;;2.40;;
65597;SDS011;52267;51.984;20.956;2023-02-01T02:07:08;3.40;;;1.70;;
65597;SDS011;52267;51.984;20.956;2023-02-01T02:09:46;8.30;;;2.50;;
65597;SDS011;52267;51.984;20.956;2023-02-01T02:12:14;6.00;;;2.20;;
65597;SDS011;52267;51.984;20.956;2023-02-01T02:14:43;6.00;;;2.40;;
65597;SDS011;52267;51.984;20.956;2023-02-01T02:27:22;5.20;;;2.30;;
65597;SDS011;52267;51.984;20.956;2023-02-01T02:35:55;5.10;;;1.90;;
65597;SDS011;52267;51.984;20.956;2023-02-01T02:38:33;10.20;;;2.40;;
65597;SDS011;52267;51.984;20.956;2023-02-01T02:41:18;8.50;;;1.70;;
65597;SDS011;52267;51.984;20.956;2023-02-01T02:48:16;6.70;;;2.30;;
65597;SDS011;52267;51.984;20.956;2023-02-01T02:51:01;7.20;;;2.50;;
65597;SDS011;52267;51.984;20.956;2023-02-01T02:54:01;7.90;;;2.10;;
65597;SDS011;52267;51.984;20.956;2023-02-01T02:56:51;7.30;;;2.40;;
65597;SDS011;52267;51.984;20.956;2023-02-01T02:59:40;4.70;;;2.10;;
65597;SDS011;52267;51.984;20.956;2023-02-01T03:02:27;4.30;;;1.60;;
65597;SDS011;52267;51.984;20.956;2023-02-01T03:05:13;9.60;;;2.10;;
65597;SDS011;52267;51.984;20.956;2023-02-01T03:08:10;5.60;;;2.10;;
65597;SDS011;52267;51.984;20.956;2023-02-01T03:11:14;6.50;;;2.30;;
65597;SDS011;52267;51.984;20.956;2023-02-01T03:13:51;7.10;;;2.80;;
65597;SDS011;52267;51.984;20.956;2023-02-01T03:16:28;9.80;;;3.60;;
65597;SDS011;52267;51.984;20.956;2023-02-01T03:21:59;9.80;;;2.50;;
65597;SDS011;52267;51.984;20.956;2023-02-01T03:24:46;5.70;;;2.40;;
65597;SDS011;52267;51.984;20.956;2023-02-01T03:30:03;6.00;;;2.50;;
65597;SDS011;52267;51.984;20.956;2023-02-01T03:32:34;9.90;;;3.60;;
65597;SDS011;52267;51.984;20.956;2023-02-01T03:35:37;7.20;;;2.40;;
65597;SDS011;52267;51.984;20.956;2023-02-01T03:41:21;6.10;;;2.30;;
65597;SDS011;52267;51.984;20.956;2023-02-01T03:44:01;9.30;;;3.40;;
65597;SDS011;52267;51.984;20.956;2023-02-01T03:47:00;5.60;;;2.00;;
65597;SDS011;52267;51.984;20.956;2023-02-01T03:49:36;8.60;;;2.50;;
65597;SDS011;52267;51.984;20.956;2023-02-01T03:52:10;9.80;;;2.70;;
65597;SDS011;52267;51.984;20.956;2023-02-01T03:54:47;10.40;;;2.90;;
65597;SDS011;52267;51.984;20.956;2023-02-01T03:57:16;6.90;;;2.20;;
65597;SDS011;52267;51.984;20.956;2023-02-01T03:59:49;7.90;;;2.20;;
65597;SDS011;52267;51.984;20.956;2023-02-01T04:02:16;9.30;;;3.20;;
65597;SDS011;52267;51.984;20.956;2023-02-01T04:04:43;9.40;;;3.10;;
65597;SDS011;52267;51.984;20.956;2023-02-01T04:07:11;11.00;;;2.90;;
65597;SDS011;52267;51.984;20.956;2023-02-01T04:09:38;11.40;;;2.70;;
65597;SDS011;52267;51.984;20.956;2023-02-01T04:12:05;6.40;;;2.40;;
65597;SDS011;52267;51.984;20.956;2023-02-01T04:14:32;7.20;;;2.60;;
65597;SDS011;52267;51.984;20.956;2023-02-01T04:17:02;10.80;;;2.60;;
65597;SDS011;52267;51.984;20.956;2023-02-01T04:19:29;6.60;;;2.20;;
65597;SDS011;52267;51.984;20.956;2023-02-01T04:21:56;7.30;;;2.80;;
65597;SDS011;52267;51.984;20.956;2023-02-01T04:24:23;10.50;;;3.00;;
65597;SDS011;52267;51.984;20.956;2023-02-01T04:26:50;7.90;;;2.70;;
65597;SDS011;52267;51.984;20.956;2023-02-01T04:29:17;6.60;;;2.50;;
65597;SDS011;52267;51.984;20.956;2023-02-01T04:31:45;5.40;;;1.70;;
65597;SDS011;52267;51.984;20.956;2023-02-01T04:34:12;9.30;;;2.40;;
65597;SDS011;52267;51.984;20.956;2023-02-01T04:36:39;4.80;;;2.00;;
65597;SDS011;52267;51.984;20.956;2023-02-01T04:39:09;8.00;;;2.50;;
65597;SDS011;52267;51.984;20.956;2023-02-01T04:41:36;8.00;;;2.10;;
65597;SDS011;52267;51.984;20.956;2023-02-01T04:44:03;7.10;;;2.60;;
65597;SDS011;52267;51.984;20.956;2023-02-01T04:46:30;7.10;;;2.80;;
65597;SDS011;52267;51.984;20.956;2023-02-01T04:48:58;10.30;;;3.00;;
65597;SDS011;52267;51.984;20.956;2023-02-01T04:51:25;10.90;;;3.10;;
65597;SDS011;52267;51.984;20.956;2023-02-01T04:53:52;9.80;;;2.40;;
65597;SDS011;52267;51.984;20.956;2023-02-01T04:56:19;8.00;;;2.60;;
65597;SDS011;52267;51.984;20.956;2023-02-01T04:58:46;8.80;;;2.60;;
65597;SDS011;52267;51.984;20.956;2023-02-01T05:01:13;6.80;;;2.30;;
65597;SDS011;52267;51.984;20.956;2023-02-01T05:03:40;9.20;;;2.40;;
65597;SDS011;52267;51.984;20.956;2023-02-01T05:06:07;9.30;;;3.50;;
65597;SDS011;52267;51.984;20.956;2023-02-01T05:08:34;7.20;;;2.00;;
65597;SDS011;52267;51.984;20.956;2023-02-01T05:11:01;8.60;;;2.40;;
65597;SDS011;52267;51.984;20.956;2023-02-01T05:13:31;7.10;;;2.70;;
65597;SDS011;52267;51.984;20.956;2023-02-01T05:16:16;14.20;;;2.70;;
65597;SDS011;52267;51.984;20.956;2023-02-01T05:18:44;6.00;;;2.30;;
65597;SDS011;52267;51.984;20.956;2023-02-01T05:21:11;7.00;;;2.50;;
65597;SDS011;52267;51.984;20.956;2023-02-01T05:23:38;8.10;;;2.70;;
65597;SDS011;52267;51.984;20.956;2023-02-01T05:26:24;13.60;;;2.70;;
65597;SDS011;52267;51.984;20.956;2023-02-01T05:28:51;7.10;;;2.40;;
65597;SDS011;52267;51.984;20.956;2023-02-01T05:31:19;7.70;;;2.20;;
65597;SDS011;52267;51.984;20.956;2023-02-01T05:33:46;7.30;;;2.50;;
65597;SDS011;52267;51.984;20.956;2023-02-01T05:36:14;5.90;;;2.20;;
65597;SDS011;52267;51.984;20.956;2023-02-01T05:38:41;6.90;;;1.90;;
65597;SDS011;52267;51.984;20.956;2023-02-01T05:41:08;9.40;;;2.80;;
65597;SDS011;52267;51.984;20.956;2023-02-01T05:43:35;9.60;;;2.60;;
65597;SDS011;52267;51.984;20.956;2023-02-01T05:46:02;10.90;;;2.30;;
65597;SDS011;52267;51.984;20.956;2023-02-01T05:48:30;7.50;;;2.60;;
65597;SDS011;52267;51.984;20.956;2023-02-01T05:50:57;7.50;;;2.50;;
65597;SDS011;52267;51.984;20.956;2023-02-01T05:53:24;10.20;;;3.20;;
65597;SDS011;52267;51.984;20.956;2023-02-01T05:55:51;10.40;;;2.40;;
65597;SDS011;52267;51.984;20.956;2023-02-01T05:58:19;9.50;;;2.70;;
65597;SDS011;52267;51.984;20.956;2023-02-01T06:00:46;12.20;;;3.20;;
65597;SDS011;52267;51.984;20.956;2023-02-01T06:03:13;7.10;;;2.30;;
65597;SDS011;52267;51.984;20.956;2023-02-01T06:05:40;10.50;;;3.00;;
65597;SDS011;52267;51.984;20.956;2023-02-01T06:08:07;6.00;;;2.90;;
65597;SDS011;52267;51.984;20.956;2023-02-01T06:10:34;7.70;;;2.40;;
65597;SDS011;52267;51.984;20.956;2023-02-01T06:13:01;5.60;;;2.30;;
65597;SDS011;52267;51.984;20.956;2023-02-01T06:15:30;12.60;;;3.30;;
65597;SDS011;52267;51.984;20.956;2023-02-01T06:17:58;13.30;;;3.70;;
65597;SDS011;52267;51.984;20.956;2023-02-01T06:20:26;7.50;;;2.70;;
65597;SDS011;52267;51.984;20.956;2023-02-01T06:22:53;6.30;;;2.60;;
65597;SDS011;52267;51.984;20.956;2023-02-01T06:25:20;6.90;;;2.40;;
65597;SDS011;52267;51.984;20.956;2023-02-01T06:27:47;7.30;;;2.60;;
65597;SDS011;52267;51.984;20.956;2023-02-01T06:30:15;8.30;;;2.90;;
65597;SDS011;52267;51.984;20.956;2023-02-01T06:32:42;10.00;;;2.80;;
65597;SDS011;52267;51.984;20.956;2023-02-01T06:35:10;9.10;;;2.60;;
65597;SDS011;52267;51.984;20.956;2023-02-01T06:37:43;7.00;;;2.40;;
65597;SDS011;52267;51.984;20.956;2023-02-01T06:40:10;7.90;;;2.70;;
65597;SDS011;52267;51.984;20.956;2023-02-01T06:42:38;12.00;;;2.60;;
65597;SDS011;52267;51.984;20.956;2023-02-01T06:45:05;8.70;;;2.80;;
65597;SDS011;52267;51.984;20.956;2023-02-01T06:47:33;7.00;;;2.30;;
65597;SDS011;52267;51.984;20.956;2023-02-01T06:50:01;10.20;;;3.80;;
65597;SDS011;52267;51.984;20.956;2023-02-01T06:52:28;8.40;;;2.90;;
65597;SDS011;52267;51.984;20.956;2023-02-01T06:54:55;8.70;;;3.00;;
65597;SDS011;52267;51.984;20.956;2023-02-01T06:57:22;8.90;;;3.60;;
65597;SDS011;52267;51.984;20.956;2023-02-01T06:59:49;8.40;;;3.30;;
65597;SDS011;52267;51.984;20.956;2023-02-01T07:02:16;11.00;;;3.60;;
65597;SDS011;52267;51.984;20.956;2023-02-01T07:04:43;12.30;;;3.10;;
65597;SDS011;52267;51.984;20.956;2023-02-01T07:07:10;6.40;;;2.00;;
65597;SDS011;52267;51.984;20.956;2023-02-01T07:09:38;6.40;;;2.10;;
65597;SDS011;52267;51.984;20.956;2023-02-01T07:12:05;6.30;;;2.30;;
65597;SDS011;52267;51.984;20.956;2023-02-01T07:14:33;6.70;;;2.30;;
65597;SDS011;52267;51.984;20.956;2023-02-01T07:17:00;12.00;;;2.80;;
65597;SDS011;52267;51.984;20.956;2023-02-01T07:19:27;8.40;;;2.80;;
65597;SDS011;52267;51.984;20.956;2023-02-01T07:21:54;9.60;;;2.80;;
65597;SDS011;52267;51.984;20.956;2023-02-01T07:24:21;7.60;;;2.20;;
65597;SDS011;52267;51.984;20.956;2023-02-01T07:26:48;13.20;;;2.70;;
65597;SDS011;52267;51.984;20.956;2023-02-01T07:29:19;8.60;;;2.60;;
65597;SDS011;52267;51.984;20.956;2023-02-01T07:31:47;4.30;;;2.00;;
65597;SDS011;52267;51.984;20.956;2023-02-01T07:34:14;6.60;;;2.30;;
65597;SDS011;52267;51.984;20.956;2023-02-01T07:36:41;11.30;;;3.00;;
65597;SDS011;52267;51.984;20.956;2023-02-01T07:39:08;4.80;;;2.00;;
65597;SDS011;52267;51.984;20.956;2023-02-01T07:41:35;8.60;;;2.00;;
65597;SDS011;52267;51.984;20.956;2023-02-01T07:44:02;8.30;;;2.80;;
65597;SDS011;52267;51.984;20.956;2023-02-01T07:46:30;10.70;;;2.80;;
65597;SDS011;52267;51.984;20.956;2023-02-01T07:48:57;10.40;;;3.50;;
65597;SDS011;52267;51.984;20.956;2023-02-01T07:51:24;8.40;;;3.30;;
65597;SDS011;52267;51.984;20.956;2023-02-01T07:53:51;7.20;;;2.80;;
65597;SDS011;52267;51.984;20.956;2023-02-01T07:56:19;6.70;;;2.90;;
65597;SDS011;52267;51.984;20.956;2023-02-01T07:58:50;9.10;;;2.90;;
65597;SDS011;52267;51.984;20.956;2023-02-01T08:01:20;13.50;;;4.70;;
65597;SDS011;52267;51.984;20.956;2023-02-01T08:03:54;9.60;;;3.10;;
65597;SDS011;52267;51.984;20.956;2023-02-01T08:06:23;8.00;;;3.60;;
65597;SDS011;52267;51.984;20.956;2023-02-01T08:08:52;15.40;;;3.30;;
65597;SDS011;52267;51.984;20.956;2023-02-01T08:11:21;7.10;;;2.80;;
65597;SDS011;52267;51.984;20.956;2023-02-01T08:13:49;8.00;;;3.00;;
65597;SDS011;52267;51.984;20.956;2023-02-01T08:16:17;6.60;;;2.70;;
65597;SDS011;52267;51.984;20.956;2023-02-01T08:18:45;12.00;;;2.90;;
65597;SDS011;52267;51.984;20.956;2023-02-01T08:23:46;10.10;;;3.00;;
65597;SDS011;52267;51.984;20.956;2023-02-01T08:26:19;9.30;;;3.30;;
65597;SDS011;52267;51.984;20.956;2023-02-01T08:28:53;13.10;;;3.00;;
65597;SDS011;52267;51.984;20.956;2023-02-01T08:31:26;13.10;;;3.00;;
65597;SDS011;52267;51.984;20.956;2023-02-01T08:33:57;12.10;;;3.10;;
65597;SDS011;52267;51.984;20.956;2023-02-01T08:36:29;6.60;;;2.70;;
65597;SDS011;52267;51.984;20.956;2023-02-01T08:38:57;12.00;;;2.50;;
65597;SDS011;52267;51.984;20.956;2023-02-01T08:41:26;6.10;;;3.30;;
65597;SDS011;52267;51.984;20.956;2023-02-01T08:43:56;9.80;;;3.00;;
65597;SDS011;52267;51.984;20.956;2023-02-01T08:46:24;10.80;;;2.90;;
65597;SDS011;52267;51.984;20.956;2023-02-01T08:48:51;13.20;;;4.30;;
65597;SDS011;52267;51.984;20.956;2023-02-01T08:51:20;15.40;;;3.70;;
65597;SDS011;52267;51.984;20.956;2023-02-01T08:53:49;10.00;;;3.30;;
65597;SDS011;52267;51.984;20.956;2023-02-01T08:56:18;8.80;;;3.10;;
65597;SDS011;52267;51.984;20.956;2023-02-01T08:58:45;11.80;;;3.70;;
65597;SDS011;52267;51.984;20.956;2023-02-01T09:01:16;11.10;;;3.60;;
65597;SDS011;52267;51.984;20.956;2023-02-01T09:03:44;10.00;;;3.70;;
65597;SDS011;52267;51.984;20.956;2023-02-01T09:06:13;7.70;;;3.00;;
65597;SDS011;52267;51.984;20.956;2023-02-01T09:08:41;11.20;;;2.70;;
65597;SDS011;52267;51.984;20.956;2023-02-01T09:11:15;10.20;;;3.10;;
65597;SDS011;52267;51.984;20.956;2023-02-01T09:13:44;7.10;;;3.20;;
65597;SDS011;52267;51.984;20.956;2023-02-01T09:16:11;9.60;;;3.30;;
65597;SDS011;52267;51.984;20.956;2023-02-01T09:18:39;8.40;;;2.90;;
65597;SDS011;52267;51.984;20.956;2023-02-01T09:21:06;8.20;;;3.00;;
65597;SDS011;52267;51.984;20.956;2023-02-01T09:23:34;8.40;;;2.60;;
65597;SDS011;52267;51.984;20.956;2023-02-01T09:26:05;8.30;;;3.40;;
65597;SDS011;52267;51.984;20.956;2023-02-01T09:28:32;12.10;;;3.60;;
65597;SDS011;52267;51.984;20.956;2023-02-01T09:31:00;9.90;;;3.20;;
65597;SDS011;52267;51.984;20.956;2023-02-01T09:33:28;5.70;;;2.60;;
65597;SDS011;52267;51.984;20.956;2023-02-01T09:36:00;9.80;;;2.60;;
65597;SDS011;52267;51.984;20.956;2023-02-01T09:38:30;13.60;;;3.50;;
65597;SDS011;52267;51.984;20.956;2023-02-01T09:40:57;11.50;;;3.10;;
65597;SDS011;52267;51.984;20.956;2023-02-01T09:46:24;10.00;;;2.70;;
65597;SDS011;52267;51.984;20.956;2023-02-01T09:48:57;6.00;;;2.40;;
65597;SDS011;52267;51.984;20.956;2023-02-01T09:51:48;13.80;;;3.30;;
65597;SDS011;52267;51.984;20.956;2023-02-01T09:54:20;8.90;;;4.30;;
65597;SDS011;52267;51.984;20.956;2023-02-01T09:57:08;8.20;;;3.40;;
65597;SDS011;52267;51.984;20.956;2023-02-01T09:59:46;10.50;;;3.10;;
65597;SDS011;52267;51.984;20.956;2023-02-01T10:02:26;7.50;;;2.60;;
65597;SDS011;52267;51.984;20.956;2023-02-01T10:04:55;10.80;;;2.80;;
65597;SDS011;52267;51.984;20.956;2023-02-01T10:10:40;5.80;;;2.70;;
65597;SDS011;52267;51.984;20.956;2023-02-01T10:14:00;11.70;;;3.90;;
65597;SDS011;52267;51.984;20.956;2023-02-01T10:19:24;8.40;;;3.10;;
65597;SDS011;52267;51.984;20.956;2023-02-01T10:22:01;6.40;;;2.60;;
65597;SDS011;52267;51.984;20.956;2023-02-01T10:25:07;10.40;;;3.80;;
65597;SDS011;52267;51.984;20.956;2023-02-01T10:27:37;7.50;;;3.60;;
65597;SDS011;52267;51.984;20.956;2023-02-01T10:30:18;8.40;;;3.60;;
65597;SDS011;52267;51.984;20.956;2023-02-01T10:32:57;10.30;;;3.70;;
65597;SDS011;52267;51.984;20.956;2023-02-01T10:35:39;9.30;;;3.10;;
65597;SDS011;52267;51.984;20.956;2023-02-01T10:38:22;6.20;;;3.10;;
65597;SDS011;52267;51.984;20.956;2023-02-01T10:40:55;8.30;;;3.50;;
65597;SDS011;52267;51.984;20.956;2023-02-01T10:43:26;10.30;;;3.30;;
65597;SDS011;52267;51.984;20.956;2023-02-01T10:45:54;12.00;;;4.00;;
65597;SDS011;52267;51.984;20.956;2023-02-01T10:48:21;9.30;;;5.20;;
65597;SDS011;52267;51.984;20.956;2023-02-01T10:50:56;9.30;;;3.70;;
65597;SDS011;52267;51.984;20.956;2023-02-01T10:53:31;10.20;;;3.60;;
65597;SDS011;52267;51.984;20.956;2023-02-01T10:56:08;10.30;;;3.20;;
65597;SDS011;52267;51.984;20.956;2023-02-01T10:58:43;10.20;;;3.40;;
65597;SDS011;52267;51.984;20.956;2023-02-01T11:01:18;6.80;;;3.50;;
65597;SDS011;52267;51.984;20.956;2023-02-01T11:06:37;12.10;;;3.50;;
65597;SDS011;52267;51.984;20.956;2023-02-01T11:09:18;13.90;;;4.80;;
65597;SDS011;52267;51.984;20.956;2023-02-01T11:14:38;10.60;;;4.20;;
65597;SDS011;52267;51.984;20.956;2023-02-01T11:17:21;11.10;;;3.10;;
65597;SDS011;52267;51.984;20.956;2023-02-01T11:20:00;13.40;;;4.00;;
65597;SDS011;52267;51.984;20.956;2023-02-01T11:22:29;16.90;;;4.40;;
65597;SDS011;52267;51.984;20.956;2023-02-01T11:24:58;11.50;;;4.10;;
65597;SDS011;52267;51.984;20.956;2023-02-01T11:27:26;6.70;;;3.30;;
65597;SDS011;52267;51.984;20.956;2023-02-01T11:30:00;10.70;;;4.20;;
65597;SDS011;52267;51.984;20.956;2023-02-01T11:32:28;9.70;;;3.50;;
65597;SDS011;52267;51.984;20.956;2023-02-01T11:35:02;11.50;;;4.30;;
65597;SDS011;52267;51.984;20.956;2023-02-01T11:37:39;11.90;;;4.30;;
65597;SDS011;52267;51.984;20.956;2023-02-01T11:40:29;10.20;;;3.50;;
65597;SDS011;52267;51.984;20.956;2023-02-01T11:46:00;9.90;;;4.30;;
65597;SDS011;52267;51.984;20.956;2023-02-01T11:48:31;11.00;;;4.20;;
65597;SDS011;52267;51.984;20.956;2023-02-01T11:51:26;9.50;;;3.80;;
65597;SDS011;52267;51.984;20.956;2023-02-01T11:54:56;12.50;;;3.90;;
65597;SDS011;52267;51.984;20.956;2023-02-01T12:05:41;14.20;;;4.60;;
65597;SDS011;52267;51.984;20.956;2023-02-01T12:20:21;10.90;;;5.20;;
65597;SDS011;52267;51.984;20.956;2023-02-01T12:28:55;14.30;;;5.50;;
65597;SDS011;52267;51.984;20.956;2023-02-01T12:31:36;15.30;;;5.80;;
65597;SDS011;52267;51.984;20.956;2023-02-01T12:41:02;13.00;;;5.80;;
65597;SDS011;52267;51.984;20.956;2023-02-01T12:43:52;15.10;;;6.20;;
65597;SDS011;52267;51.984;20.956;2023-02-01T12:46:37;18.20;;;6.30;;
65597;SDS011;52267;51.984;20.956;2023-02-01T12:49:18;12.40;;;5.00;;
65597;SDS011;52267;51.984;20.956;2023-02-01T12:51:55;13.70;;;5.00;;
65597;SDS011;52267;51.984;20.956;2023-02-01T12:54:49;10.90;;;5.10;;
65597;SDS011;52267;51.984;20.956;2023-02-01T12:57:27;16.30;;;6.00;;
65597;SDS011;52267;51.984;20.956;2023-02-01T13:00:15;12.90;;;4.80;;
65597;SDS011;52267;51.984;20.956;2023-02-01T13:06:10;11.80;;;4.60;;
65597;SDS011;52267;51.984;20.956;2023-02-01T13:08:46;15.50;;;6.30;;
65597;SDS011;52267;51.984;20.956;2023-02-01T13:11:40;18.00;;;5.00;;
65597;SDS011;52267;51.984;20.956;2023-02-01T13:17:26;13.70;;;5.40;;
65597;SDS011;52267;51.984;20.956;2023-02-01T13:25:52;11.80;;;4.90;;
65597;SDS011;52267;51.984;20.956;2023-02-01T13:28:28;13.90;;;5.60;;
65597;SDS011;52267;51.984;20.956;2023-02-01T13:31:14;14.20;;;6.30;;
65597;SDS011;52267;51.984;20.956;2023-02-01T13:43:00;10.00;;;3.80;;
65597;SDS011;52267;51.984;20.956;2023-02-01T13:45:34;15.30;;;5.50;;
65597;SDS011;52267;51.984;20.956;2023-02-01T13:50:37;20.20;;;6.00;;
65597;SDS011;52267;51.984;20.956;2023-02-01T13:55:39;12.10;;;4.70;;
65597;SDS011;52267;51.984;20.956;2023-02-01T14:00:43;7.60;;;3.90;;
65597;SDS011;52267;51.984;20.956;2023-02-01T14:03:20;9.20;;;4.40;;
65597;SDS011;52267;51.984;20.956;2023-02-01T14:08:39;7.90;;;3.90;;
65597;SDS011;52267;51.984;20.956;2023-02-01T14:11:31;11.50;;;4.20;;
65597;SDS011;52267;51.984;20.956;2023-02-01T14:19:32;8.40;;;3.10;;
65597;SDS011;52267;51.984;20.956;2023-02-01T14:24:56;7.10;;;3.80;;
65597;SDS011;52267;51.984;20.956;2023-02-01T14:27:27;8.60;;;3.60;;
65597;SDS011;52267;51.984;20.956;2023-02-01T14:30:07;9.30;;;4.00;;
65597;SDS011;52267;51.984;20.956;2023-02-01T14:32:40;10.50;;;4.10;;
65597;SDS011;52267;51.984;20.956;2023-02-01T14:35:25;6.90;;;2.90;;
65597;SDS011;52267;51.984;20.956;2023-02-01T14:37:59;6.50;;;2.80;;
65597;SDS011;52267;51.984;20.956;2023-02-01T14:40:29;8.50;;;3.10;;
65597;SDS011;52267;51.984;20.956;2023-02-01T14:42:57;11.00;;;5.20;;
65597;SDS011;52267;51.984;20.956;2023-02-01T14:56:30;6.00;;;2.60;;
65597;SDS011;52267;51.984;20.956;2023-02-01T14:58:52;7.00;;;3.20;;
65597;SDS011;52267;51.984;20.956;2023-02-01T15:01:33;5.10;;;2.40;;
65597;SDS011;52267;51.984;20.956;2023-02-01T15:06:44;7.40;;;3.40;;
65597;SDS011;52267;51.984;20.956;2023-02-01T15:14:46;5.30;;;3.40;;
65597;SDS011;52267;51.984;20.956;2023-02-01T15:17:21;9.50;;;4.10;;
65597;SDS011;52267;51.984;20.956;2023-02-01T15:20:00;8.00;;;4.10;;
65597;SDS011;52267;51.984;20.956;2023-02-01T15:22:29;11.90;;;4.90;;
65597;SDS011;52267;51.984;20.956;2023-02-01T15:25:00;5.20;;;2.90;;
65597;SDS011;52267;51.984;20.956;2023-02-01T15:27:28;8.90;;;3.90;;
65597;SDS011;52267;51.984;20.956;2023-02-01T15:30:08;9.20;;;4.60;;
65597;SDS011;52267;51.984;20.956;2023-02-01T15:32:43;11.20;;;4.50;;
65597;SDS011;52267;51.984;20.956;2023-02-01T15:35:36;9.10;;;4.50;;
65597;SDS011;52267;51.984;20.956;2023-02-01T15:41:05;5.50;;;3.60;;
65597;SDS011;52267;51.984;20.956;2023-02-01T15:43:44;8.70;;;4.70;;
65597;SDS011;52267;51.984;20.956;2023-02-01T15:46:23;9.90;;;4.80;;
65597;SDS011;52267;51.984;20.956;2023-02-01T15:48:56;8.20;;;3.90;;
65597;SDS011;52267;51.984;20.956;2023-02-01T15:51:27;9.20;;;5.30;;
65597;SDS011;52267;51.984;20.956;2023-02-01T15:54:03;10.90;;;6.00;;
65597;SDS011;52267;51.984;20.956;2023-02-01T15:56:36;11.70;;;5.40;;
65597;SDS011;52267;51.984;20.956;2023-02-01T15:59:12;7.50;;;3.70;;
65597;SDS011;52267;51.984;20.956;2023-02-01T16:01:44;9.00;;;5.90;;
65597;SDS011;52267;51.984;20.956;2023-02-01T16:04:21;10.60;;;4.90;;
65597;SDS011;52267;51.984;20.956;2023-02-01T16:07:01;9.90;;;4.90;;
65597;SDS011;52267;51.984;20.956;2023-02-01T16:09:51;8.30;;;4.70;;
65597;SDS011;52267;51.984;20.956;2023-02-01T16:12:33;7.40;;;4.70;;
65597;SDS011;52267;51.984;20.956;2023-02-01T16:15:12;10.40;;;4.30;;
65597;SDS011;52267;51.984;20.956;2023-02-01T16:17:39;8.50;;;5.50;;
65597;SDS011;52267;51.984;20.956;2023-02-01T16:20:07;8.60;;;4.70;;
65597;SDS011;52267;51.984;20.956;2023-02-01T16:22:35;11.80;;;5.30;;
65597;SDS011;52267;51.984;20.956;2023-02-01T16:25:03;7.00;;;4.00;;
65597;SDS011;52267;51.984;20.956;2023-02-01T16:27:30;10.20;;;5.90;;
65597;SDS011;52267;51.984;20.956;2023-02-01T16:29:58;17.40;;;6.50;;
65597;SDS011;52267;51.984;20.956;2023-02-01T16:32:26;8.90;;;5.40;;
65597;SDS011;52267;51.984;20.956;2023-02-01T16:34:53;9.40;;;5.50;;
65597;SDS011;52267;51.984;20.956;2023-02-01T16:37:24;8.60;;;5.80;;
65597;SDS011;52267;51.984;20.956;2023-02-01T16:39:54;7.80;;;5.10;;
65597;SDS011;52267;51.984;20.956;2023-02-01T16:42:21;13.80;;;6.00;;
65597;SDS011;52267;51.984;20.956;2023-02-01T16:44:48;10.80;;;4.70;;
65597;SDS011;52267;51.984;20.956;2023-02-01T16:47:18;10.70;;;5.30;;
65597;SDS011;52267;51.984;20.956;2023-02-01T16:49:46;11.10;;;6.00;;
65597;SDS011;52267;51.984;20.956;2023-02-01T16:52:19;9.50;;;5.70;;
65597;SDS011;52267;51.984;20.956;2023-02-01T16:54:49;10.60;;;6.00;;
65597;SDS011;52267;51.984;20.956;2023-02-01T16:57:18;12.20;;;7.20;;
65597;SDS011;52267;51.984;20.956;2023-02-01T16:59:49;13.90;;;6.90;;
65597;SDS011;52267;51.984;20.956;2023-02-01T17:02:18;10.50;;;6.30;;
65597;SDS011;52267;51.984;20.956;2023-02-01T17:04:47;9.10;;;5.90;;
65597;SDS011;52267;51.984;20.956;2023-02-01T17:07:17;15.40;;;7.50;;
65597;SDS011;52267;51.984;20.956;2023-02-01T17:09:47;12.90;;;6.40;;
65597;SDS011;52267;51.984;20.956;2023-02-01T17:12:26;11.30;;;6.60;;
65597;SDS011;52267;51.984;20.956;2023-02-01T17:14:57;14.40;;;7.60;;
65597;SDS011;52267;51.984;20.956;2023-02-01T17:17:32;13.80;;;7.50;;
65597;SDS011;52267;51.984;20.956;2023-02-01T17:20:03;10.10;;;6.40;;
65597;SDS011;52267;51.984;20.956;2023-02-01T17:22:35;10.00;;;6.30;;
65597;SDS011;52267;51.984;20.956;2023-02-01T17:25:13;11.70;;;5.40;;
65597;SDS011;52267;51.984;20.956;2023-02-01T17:27:44;11.20;;;6.30;;
65597;SDS011;52267;51.984;20.956;2023-02-01T17:30:13;12.50;;;7.10;;